createdAt,value
2023-02-05T00:01:49.290Z,9.87
2023-02-05T00:04:17.514Z,10.73
2023-02-05T00:06:46.787Z,15.27
2023-02-05T00:09:14.675Z,17.97
2023-02-05T00:11:42.748Z,13.23
2023-02-05T00:14:10.921Z,12.03
2023-02-05T00:16:38.988Z,11.90
2023-02-05T00:19:06.846Z,10.80
2023-02-05T00:21:35.243Z,10.23
2023-02-05T00:24:04.896Z,10.87
2023-02-05T00:26:33.524Z,8.97
2023-02-05T00:29:02.060Z,10.30
2023-02-05T00:31:30.180Z,13.63
2023-02-05T00:33:58.815Z,11.27
2023-02-05T00:36:27.475Z,10.23
2023-02-05T00:38:55.454Z,8.50
2023-02-05T00:41:24.614Z,10.73
2023-02-05T00:43:52.560Z,12.03
2023-02-05T00:46:20.653Z,9.80
2023-02-05T00:48:48.674Z,12.03
2023-02-05T00:51:16.629Z,10.80
2023-02-05T00:53:44.665Z,9.33
2023-02-05T00:56:12.681Z,7.40
2023-02-05T00:58:47.455Z,13.47
2023-02-05T01:01:15.917Z,12.73
2023-02-05T01:03:44.485Z,13.93
2023-02-05T01:06:12.534Z,11.80
2023-02-05T01:08:40.967Z,9.67
2023-02-05T01:11:11.325Z,13.23
2023-02-05T01:13:41.080Z,8.70
2023-02-05T01:16:10.455Z,9.40
2023-02-05T01:18:40.129Z,11.43
2023-02-05T01:21:08.242Z,8.30
2023-02-05T01:23:36.152Z,7.50
2023-02-05T01:26:04.377Z,8.10
2023-02-05T01:28:32.405Z,8.57
2023-02-05T01:31:01.687Z,6.70
2023-02-05T01:33:29.719Z,8.37
2023-02-05T01:35:57.740Z,6.07
2023-02-05T01:38:25.737Z,7.90
2023-02-05T01:40:53.893Z,6.90
2023-02-05T01:43:21.861Z,8.23
2023-02-05T01:46:15.994Z,4.30
2023-02-05T01:48:47.826Z,4.77
2023-02-05T01:51:17.677Z,9.33
2023-02-05T01:53:49.408Z,7.17
2023-02-05T01:56:22.279Z,5.53
2023-02-05T01:58:54.903Z,5.30
2023-02-05T02:01:25.876Z,7.03
2023-02-05T02:03:55.896Z,5.60
2023-02-05T02:06:23.922Z,4.77
2023-02-05T02:08:51.872Z,3.93
2023-02-05T02:11:23.336Z,6.30
2023-02-05T02:13:55.708Z,8.63
2023-02-05T02:16:26.360Z,6.00
2023-02-05T02:18:55.636Z,6.17
2023-02-05T02:21:53.774Z,6.37
2023-02-05T02:24:49.847Z,6.10
2023-02-05T02:27:46.379Z,7.10
2023-02-05T02:30:21.584Z,4.70
2023-02-05T02:32:58.947Z,7.53
2023-02-05T02:35:33.703Z,7.67
2023-02-05T02:38:09.977Z,4.77
2023-02-05T02:40:43.136Z,4.87
2023-02-05T02:43:17.106Z,8.53
2023-02-05T02:45:51.770Z,4.47
2023-02-05T02:48:24.896Z,4.43
2023-02-05T02:50:56.665Z,6.10
2023-02-05T02:53:28.168Z,7.37
2023-02-05T02:55:58.285Z,6.27
2023-02-05T02:58:33.987Z,5.87
2023-02-05T03:01:05.219Z,5.57
2023-02-05T03:03:37.686Z,5.97
2023-02-05T03:06:08.331Z,4.90
2023-02-05T03:08:43.183Z,4.73
2023-02-05T03:11:14.698Z,3.53
2023-02-05T03:13:45.655Z,3.57
2023-02-05T03:16:15.646Z,3.90
2023-02-05T03:18:44.148Z,5.03
2023-02-05T03:21:17.923Z,5.03
2023-02-05T03:23:46.165Z,4.43
2023-02-05T03:26:28.067Z,3.83
2023-02-05T03:28:58.332Z,3.60
2023-02-05T03:31:33.886Z,5.07
2023-02-05T03:34:13.512Z,3.33
2023-02-05T03:36:51.947Z,6.67
2023-02-05T03:39:31.115Z,2.73
2023-02-05T03:42:11.683Z,4.83
2023-02-05T03:45:19.317Z,5.20
2023-02-05T03:48:01.281Z,4.63
2023-02-05T03:50:33.457Z,2.93
2023-02-05T03:53:20.850Z,3.92
2023-02-05T03:55:52.759Z,5.27
2023-02-05T03:58:25.823Z,3.83
2023-02-05T04:00:55.039Z,5.25
2023-02-05T04:03:23.241Z,5.10
2023-02-05T04:05:51.324Z,3.47
2023-02-05T04:08:19.237Z,4.55
2023-02-05T04:10:47.179Z,3.72
2023-02-05T04:13:16.123Z,3.13
2023-02-05T04:15:44.200Z,3.88
2023-02-05T04:18:13.646Z,5.30
2023-02-05T04:20:41.503Z,4.13
2023-02-05T04:23:09.324Z,5.75
2023-02-05T04:25:37.854Z,3.67
2023-02-05T04:28:06.816Z,3.25
2023-02-05T04:30:35.566Z,3.67
2023-02-05T04:33:03.909Z,4.32
2023-02-05T04:35:33.516Z,6.38
2023-02-05T04:38:01.589Z,3.40
2023-02-05T04:40:29.576Z,3.90
2023-02-05T04:42:57.635Z,3.42
2023-02-05T04:45:29.066Z,3.53
2023-02-05T04:47:57.104Z,3.28
2023-02-05T04:50:25.284Z,3.35
2023-02-05T04:52:54.844Z,4.53
2023-02-05T04:55:22.794Z,3.95
2023-02-05T04:57:52.570Z,3.92
2023-02-05T05:00:21.143Z,3.28
2023-02-05T05:02:49.241Z,4.13
2023-02-05T05:05:18.632Z,3.70
2023-02-05T05:07:47.045Z,7.20
2023-02-05T05:10:16.454Z,4.03
2023-02-05T05:12:44.460Z,5.40
2023-02-05T05:15:12.368Z,2.92
2023-02-05T05:17:40.412Z,4.93
2023-02-05T05:20:08.902Z,4.50
2023-02-05T05:22:36.784Z,3.30
2023-02-05T05:25:04.794Z,4.05
2023-02-05T05:27:34.390Z,3.15
2023-02-05T05:30:02.521Z,5.60
2023-02-05T05:32:30.456Z,6.93
2023-02-05T05:34:58.414Z,2.83
2023-02-05T05:37:26.382Z,4.18
2023-02-05T05:40:11.549Z,3.47
2023-02-05T05:42:58.067Z,4.28
2023-02-05T05:45:26.288Z,3.08
2023-02-05T05:47:54.265Z,5.07
2023-02-05T05:50:22.226Z,3.47
2023-02-05T05:52:50.270Z,3.15
2023-02-05T05:55:18.259Z,4.45
2023-02-05T05:57:47.630Z,3.20
2023-02-05T06:00:16.606Z,3.05
2023-02-05T06:02:44.795Z,3.65
2023-02-05T06:05:13.007Z,2.92
2023-02-05T06:07:41.013Z,2.92
2023-02-05T06:10:09.647Z,5.03
2023-02-05T06:12:37.619Z,4.68
2023-02-05T06:15:08.149Z,2.90
2023-02-05T06:17:36.094Z,4.45
2023-02-05T06:20:04.186Z,3.40
2023-02-05T06:22:32.191Z,2.53
2023-02-05T06:25:00.133Z,3.97
2023-02-05T06:27:28.136Z,3.67
2023-02-05T06:29:56.077Z,4.90
2023-02-05T06:32:26.888Z,5.53
2023-02-05T06:34:54.800Z,2.63
2023-02-05T06:37:34.185Z,3.08
2023-02-05T06:40:13.809Z,2.92
2023-02-05T06:42:41.735Z,4.00
2023-02-05T06:45:13.300Z,2.45
2023-02-05T06:47:42.520Z,4.85
2023-02-05T06:50:10.947Z,4.78
2023-02-05T06:52:38.893Z,3.45
2023-02-05T06:55:07.739Z,2.70
2023-02-05T06:57:35.717Z,3.60
2023-02-05T07:00:03.650Z,3.00
2023-02-05T07:02:31.895Z,3.95
2023-02-05T07:05:01.263Z,3.13
2023-02-05T07:07:29.270Z,2.72
2023-02-05T07:09:57.314Z,4.35
2023-02-05T07:12:25.290Z,2.97
2023-02-05T07:14:53.223Z,2.50
2023-02-05T07:17:21.304Z,2.58
2023-02-05T07:19:49.102Z,2.67
2023-02-05T07:22:18.202Z,4.78
2023-02-05T07:24:46.216Z,4.78
2023-02-05T07:27:14.141Z,2.45
2023-02-05T07:29:41.856Z,2.60
2023-02-05T07:32:10.196Z,2.88
2023-02-05T07:34:38.203Z,5.65
2023-02-05T07:37:06.006Z,3.92
2023-02-05T07:39:35.379Z,2.60
2023-02-05T07:42:03.330Z,3.15
2023-02-05T07:44:31.390Z,4.82
2023-02-05T07:46:59.387Z,3.05
2023-02-05T07:49:27.482Z,2.25
2023-02-05T07:51:55.399Z,3.83
2023-02-05T07:54:24.707Z,3.65
2023-02-05T07:56:55.398Z,2.40
2023-02-05T07:59:23.406Z,3.75
2023-02-05T08:01:51.787Z,6.13
2023-02-05T08:04:19.879Z,2.60
2023-02-05T08:06:47.759Z,5.15
2023-02-05T08:09:16.887Z,2.78
2023-02-05T08:11:44.774Z,7.88
2023-02-05T08:14:14.117Z,2.47
2023-02-05T08:16:42.265Z,4.03
2023-02-05T08:19:15.339Z,3.30
2023-02-05T08:21:43.601Z,3.53
2023-02-05T08:24:11.540Z,4.47
2023-02-05T08:26:39.818Z,4.63
2023-02-05T08:29:08.349Z,2.40
2023-02-05T08:31:38.858Z,3.25
2023-02-05T08:34:07.614Z,2.55
2023-02-05T08:36:35.586Z,2.60
2023-02-05T08:39:06.552Z,4.60
2023-02-05T08:41:34.341Z,3.10
2023-02-05T08:44:02.334Z,2.83
2023-02-05T08:46:40.399Z,4.97
2023-02-05T08:49:18.056Z,2.97
2023-02-05T08:51:46.449Z,2.30
2023-02-05T08:54:15.475Z,6.03
2023-02-05T08:56:45.404Z,3.90
2023-02-05T08:59:14.192Z,2.63
2023-02-05T09:01:43.453Z,3.80
2023-02-05T09:04:14.963Z,2.13
2023-02-05T09:06:45.221Z,2.78
2023-02-05T09:09:13.657Z,4.80
2023-02-05T09:11:41.991Z,3.28
2023-02-05T09:14:11.026Z,2.30
2023-02-05T09:16:39.208Z,2.25
2023-02-05T09:19:07.629Z,2.95
2023-02-05T09:21:36.204Z,7.63
2023-02-05T09:24:06.116Z,4.18
2023-02-05T09:26:33.987Z,9.00
2023-02-05T09:29:02.014Z,6.13
2023-02-05T09:31:30.052Z,5.82
2023-02-05T09:33:58.201Z,2.40
2023-02-05T09:36:26.279Z,5.40
2023-02-05T09:39:11.821Z,4.60
2023-02-05T09:41:50.489Z,2.60
2023-02-05T09:44:30.165Z,3.47
2023-02-05T09:47:06.793Z,2.45
2023-02-05T09:49:39.721Z,2.63
2023-02-05T09:52:18.779Z,4.90
2023-02-05T09:54:51.843Z,3.03
2023-02-05T09:57:31.202Z,3.45
2023-02-05T10:00:00.016Z,2.60
2023-02-05T10:02:36.629Z,2.47
2023-02-05T10:05:13.339Z,2.80
2023-02-05T10:07:52.925Z,2.53
2023-02-05T10:10:26.018Z,2.70
2023-02-05T10:13:09.823Z,2.60
2023-02-05T10:16:07.538Z,4.05
2023-02-05T10:18:46.616Z,5.20
2023-02-05T10:21:30.138Z,3.83
2023-02-05T10:24:27.242Z,3.05
2023-02-05T10:27:01.584Z,4.00
2023-02-05T10:29:45.801Z,2.85
2023-02-05T10:32:22.861Z,2.22
2023-02-05T10:34:59.468Z,5.28
2023-02-05T10:37:34.980Z,4.28
2023-02-05T10:40:03.963Z,3.17
2023-02-05T10:42:38.858Z,4.57
2023-02-05T10:45:19.110Z,2.90
2023-02-05T10:47:57.674Z,2.25
2023-02-05T10:50:31.529Z,2.63
2023-02-05T10:52:59.283Z,8.55
2023-02-05T10:55:27.214Z,3.47
2023-02-05T10:57:55.501Z,2.55
2023-02-05T11:00:26.034Z,6.28
2023-02-05T11:02:57.046Z,3.08
2023-02-05T11:05:31.592Z,3.40
2023-02-05T11:07:59.600Z,3.67
2023-02-05T11:10:29.543Z,6.75
2023-02-05T11:13:03.344Z,2.15
2023-02-05T11:15:34.746Z,4.60
2023-02-05T11:18:05.590Z,3.20
2023-02-05T11:20:36.290Z,3.65
2023-02-05T11:23:10.712Z,3.33
2023-02-05T11:25:50.670Z,4.60
2023-02-05T11:28:25.104Z,4.88
2023-02-05T11:30:54.998Z,4.15
2023-02-05T11:33:29.071Z,6.78
2023-02-05T11:35:59.112Z,3.13
2023-02-05T11:38:32.664Z,2.30
2023-02-05T11:41:03.619Z,3.15
2023-02-05T11:43:34.383Z,4.90
2023-02-05T11:46:07.011Z,4.68
2023-02-05T11:48:40.219Z,3.53
2023-02-05T11:51:10.895Z,3.15
2023-02-05T11:53:45.212Z,3.83
2023-02-05T11:56:22.317Z,3.50
2023-02-05T11:59:00.097Z,3.70
2023-02-05T12:01:33.715Z,2.60
2023-02-05T12:04:03.417Z,2.60
2023-02-05T12:06:36.801Z,2.60
2023-02-05T12:09:04.968Z,3.97
2023-02-05T12:12:04.084Z,2.97
2023-02-05T12:14:45.611Z,3.58
2023-02-05T12:17:29.986Z,5.93
2023-02-05T12:20:04.469Z,3.40
2023-02-05T12:22:53.434Z,4.78
2023-02-05T12:25:26.641Z,2.33
2023-02-05T12:28:10.088Z,2.78
2023-02-05T12:30:51.739Z,3.83
2023-02-05T12:33:47.760Z,3.88
2023-02-05T12:36:27.142Z,2.63
2023-02-05T12:39:04.116Z,3.10
2023-02-05T12:41:42.818Z,4.32
2023-02-05T12:44:25.620Z,3.63
2023-02-05T12:47:04.295Z,4.18
2023-02-05T12:49:49.729Z,3.03
2023-02-05T12:52:29.413Z,2.95
2023-02-05T12:55:07.859Z,3.38
2023-02-05T12:57:41.943Z,6.60
2023-02-05T13:00:16.715Z,3.45
2023-02-05T13:02:54.295Z,3.47
2023-02-05T13:05:30.166Z,3.42
2023-02-05T13:08:03.548Z,3.08
2023-02-05T13:10:39.680Z,3.95
2023-02-05T13:13:15.211Z,4.07
2023-02-05T13:15:45.681Z,9.35
2023-02-05T13:18:18.936Z,4.05
2023-02-05T13:21:11.868Z,7.60
2023-02-05T13:24:08.038Z,3.30
2023-02-05T13:26:58.254Z,6.90
2023-02-05T13:29:30.929Z,3.88
2023-02-05T13:32:14.668Z,4.07
2023-02-05T13:34:43.529Z,5.35
2023-02-05T13:37:27.596Z,5.07
2023-02-05T13:40:15.891Z,4.32
2023-02-05T13:43:06.642Z,3.60
2023-02-05T13:46:08.982Z,7.03
2023-02-05T13:49:08.278Z,5.00
2023-02-05T13:51:55.651Z,4.13
2023-02-05T13:54:52.579Z,5.50
2023-02-05T13:57:58.559Z,5.53
2023-02-05T14:00:28.017Z,4.60
2023-02-05T14:02:57.552Z,6.97
2023-02-05T14:05:34.627Z,4.78
2023-02-05T14:08:04.342Z,6.45
2023-02-05T14:10:36.391Z,4.10
2023-02-05T14:13:13.855Z,5.50
2023-02-05T14:15:43.069Z,4.63
2023-02-05T14:18:12.991Z,8.25
2023-02-05T14:20:44.674Z,4.95
2023-02-05T14:23:37.404Z,3.38
2023-02-05T14:26:11.965Z,3.97
2023-02-05T14:29:00.992Z,5.85
2023-02-05T14:31:48.528Z,3.40
2023-02-05T14:34:50.033Z,6.07
2023-02-05T14:37:39.220Z,5.38
2023-02-05T14:40:23.128Z,4.80
2023-02-05T14:43:08.508Z,5.68
2023-02-05T14:45:44.897Z,6.32
2023-02-05T14:48:22.578Z,6.20
2023-02-05T14:51:03.346Z,3.90
2023-02-05T14:53:33.341Z,5.78
2023-02-05T14:56:02.304Z,8.57
2023-02-05T14:58:35.797Z,4.68
2023-02-05T15:01:32.381Z,4.15
2023-02-05T15:04:01.854Z,7.45
2023-02-05T15:06:32.613Z,4.55
2023-02-05T15:09:06.709Z,6.47
2023-02-05T15:11:46.394Z,5.35
2023-02-05T15:14:41.432Z,4.82
2023-02-05T15:17:49.483Z,5.85
2023-02-05T15:20:38.286Z,8.63
2023-02-05T15:23:19.437Z,6.10
2023-02-05T15:25:54.641Z,10.50
2023-02-05T15:28:28.429Z,9.15
2023-02-05T15:31:08.394Z,8.85
2023-02-05T15:33:45.361Z,5.80
2023-02-05T15:36:21.679Z,6.00
2023-02-05T15:39:02.644Z,12.77
2023-02-05T15:41:33.548Z,9.90
2023-02-05T15:44:04.241Z,6.05
2023-02-05T15:46:35.370Z,11.18
2023-02-05T15:49:06.931Z,5.82
2023-02-05T15:51:37.892Z,6.57
2023-02-05T15:54:07.198Z,7.95
2023-02-05T15:56:38.584Z,7.40
2023-02-05T15:59:18.527Z,7.45
2023-02-05T16:01:50.951Z,5.07
2023-02-05T16:04:20.172Z,6.63
2023-02-05T16:06:48.342Z,7.10
2023-02-05T16:09:19.002Z,5.97
2023-02-05T16:11:48.151Z,6.00
2023-02-05T16:14:18.161Z,8.50
2023-02-05T16:16:59.125Z,9.02
2023-02-05T16:19:30.144Z,7.13
2023-02-05T16:22:02.250Z,8.23
2023-02-05T16:24:35.992Z,7.55
2023-02-05T16:27:07.954Z,5.03
2023-02-05T16:29:48.133Z,8.82
2023-02-05T16:32:24.023Z,7.32
2023-02-05T16:34:52.170Z,7.13
2023-02-05T16:37:21.711Z,12.10
2023-02-05T16:39:54.550Z,13.75
2023-02-05T16:42:34.208Z,12.45
2023-02-05T16:45:23.762Z,20.08
2023-02-05T16:48:21.622Z,14.38
2023-02-05T16:50:50.246Z,8.23
2023-02-05T16:53:23.604Z,8.95
2023-02-05T16:55:58.217Z,7.95
2023-02-05T16:58:28.686Z,10.75
2023-02-05T17:00:59.316Z,17.02
2023-02-05T17:03:31.934Z,12.35
2023-02-05T17:06:02.775Z,12.23
2023-02-05T17:08:33.499Z,8.32
2023-02-05T17:11:03.819Z,7.57
2023-02-05T17:13:38.731Z,7.45
2023-02-05T17:16:27.790Z,14.05
2023-02-05T17:18:59.216Z,7.45
2023-02-05T17:21:29.970Z,12.10
2023-02-05T17:23:59.733Z,13.48
2023-02-05T17:26:30.948Z,14.80
2023-02-05T17:29:01.021Z,13.00
2023-02-05T17:31:29.534Z,14.10
2023-02-05T17:34:00.021Z,20.98
2023-02-05T17:36:28.373Z,16.92
2023-02-05T17:38:56.418Z,12.40
2023-02-05T17:41:43.983Z,14.05
2023-02-05T17:44:12.997Z,16.15
2023-02-05T17:46:44.873Z,15.77
2023-02-05T17:49:14.166Z,10.18
2023-02-05T17:51:42.877Z,9.52
2023-02-05T17:54:14.663Z,6.50
2023-02-05T17:56:44.436Z,8.32
2023-02-05T17:59:17.026Z,9.20
2023-02-05T18:01:44.868Z,13.95
2023-02-05T18:04:14.095Z,11.02
2023-02-05T18:06:43.026Z,8.10
2023-02-05T18:09:12.422Z,9.68
2023-02-05T18:11:40.879Z,8.18
2023-02-05T18:14:09.141Z,8.07
2023-02-05T18:16:37.447Z,10.32
2023-02-05T18:19:05.760Z,9.45
2023-02-05T18:21:35.910Z,13.68
2023-02-05T18:24:04.394Z,10.57
2023-02-05T18:26:33.282Z,8.52
2023-02-05T18:29:01.252Z,7.78
2023-02-05T18:31:29.230Z,11.50
2023-02-05T18:33:57.341Z,10.82
2023-02-05T18:36:25.209Z,8.10
2023-02-05T18:38:56.675Z,9.55
2023-02-05T18:41:25.976Z,9.60
2023-02-05T18:43:55.522Z,9.35
2023-02-05T18:46:23.749Z,12.20
2023-02-05T18:48:52.113Z,9.13
2023-02-05T18:51:22.264Z,8.82
2023-02-05T18:53:50.810Z,8.48
2023-02-05T18:56:22.432Z,15.52
2023-02-05T18:58:53.764Z,10.35
2023-02-05T19:01:21.764Z,10.45
2023-02-05T19:03:52.876Z,11.77
2023-02-05T19:06:21.711Z,10.45
2023-02-05T19:08:50.491Z,16.00
2023-02-05T19:11:22.917Z,10.00
2023-02-05T19:13:56.178Z,11.20
2023-02-05T19:16:24.739Z,12.45
2023-02-05T19:18:52.572Z,12.35
2023-02-05T19:21:22.426Z,11.13
2023-02-05T19:23:52.441Z,15.05
2023-02-05T19:26:24.001Z,7.68
2023-02-05T19:28:55.966Z,7.80
2023-02-05T19:31:25.947Z,8.65
2023-02-05T19:33:54.291Z,13.45
2023-02-05T19:36:22.636Z,9.65
2023-02-05T19:38:50.882Z,11.02
2023-02-05T19:41:22.232Z,9.68
2023-02-05T19:43:52.265Z,10.55
2023-02-05T19:46:23.226Z,10.52
2023-02-05T19:48:51.778Z,10.00
2023-02-05T19:51:19.864Z,10.85
2023-02-05T19:53:48.126Z,8.63
2023-02-05T19:56:17.934Z,11.80
2023-02-05T19:58:49.343Z,12.80
2023-02-05T20:01:19.178Z,7.50
2023-02-05T20:03:47.561Z,9.82
2023-02-05T20:06:17.526Z,11.48
2023-02-05T20:08:46.239Z,10.38
2023-02-05T20:11:14.643Z,14.90
2023-02-05T20:13:43.347Z,16.10
2023-02-05T20:16:16.552Z,13.57
2023-02-05T20:18:45.714Z,15.32
2023-02-05T20:21:16.043Z,13.80
2023-02-05T20:23:44.000Z,14.55
2023-02-05T20:26:12.523Z,8.75
2023-02-05T20:28:56.708Z,13.50
2023-02-05T20:31:41.379Z,12.83
2023-02-05T20:34:11.708Z,15.02
2023-02-05T20:36:39.839Z,12.90
2023-02-05T20:39:08.985Z,10.45
2023-02-05T20:41:37.007Z,12.25
2023-02-05T20:44:05.287Z,10.27
2023-02-05T20:46:34.585Z,11.48
2023-02-05T20:49:03.514Z,12.45
2023-02-05T20:51:31.757Z,6.97
2023-02-05T20:54:00.216Z,14.77
2023-02-05T20:56:30.030Z,5.57
2023-02-05T20:59:00.717Z,10.70
2023-02-05T21:01:31.475Z,13.35
2023-02-05T21:04:03.094Z,11.40
2023-02-05T21:06:33.861Z,8.73
2023-02-05T21:09:02.111Z,8.27
2023-02-05T21:11:30.944Z,7.85
2023-02-05T21:13:59.400Z,9.60
2023-02-05T21:16:28.580Z,7.95
2023-02-05T21:18:56.600Z,7.68
2023-02-05T21:21:28.031Z,11.20
2023-02-05T21:23:57.044Z,14.38
2023-02-05T21:26:27.022Z,11.32
2023-02-05T21:28:55.236Z,14.80
2023-02-05T21:31:23.905Z,9.98
2023-02-05T21:33:51.779Z,6.75
2023-02-05T21:36:20.466Z,6.82
2023-02-05T21:38:49.822Z,10.35
2023-02-05T21:41:19.514Z,13.57
2023-02-05T21:43:49.544Z,6.25
2023-02-05T21:46:17.393Z,11.43
2023-02-05T21:48:49.606Z,7.82
2023-02-05T21:51:18.873Z,16.10
2023-02-05T21:53:55.371Z,7.68
2023-02-05T21:56:23.298Z,9.40
2023-02-05T21:58:51.623Z,7.90
2023-02-05T22:01:22.680Z,6.65
2023-02-05T22:03:52.998Z,8.27
2023-02-05T22:06:23.008Z,8.10
2023-02-05T22:08:51.086Z,6.55
2023-02-05T22:11:22.123Z,10.00
2023-02-05T22:13:51.824Z,7.97
2023-02-05T22:16:21.929Z,8.98
2023-02-05T22:18:50.931Z,5.97
2023-02-05T22:21:20.598Z,6.00
2023-02-05T22:23:51.581Z,8.82
2023-02-05T22:26:23.293Z,6.95
2023-02-05T22:28:51.886Z,11.45
2023-02-05T22:31:21.323Z,8.88
2023-02-05T22:33:50.994Z,8.27
2023-02-05T22:36:21.974Z,6.90
2023-02-05T22:38:51.048Z,6.72
2023-02-05T22:41:22.608Z,14.35
2023-02-05T22:43:50.908Z,8.65
2023-02-05T22:46:21.113Z,6.15
2023-02-05T22:48:50.154Z,6.75
2023-02-05T22:51:20.817Z,6.55
2023-02-05T22:53:49.240Z,12.35
2023-02-05T22:56:18.610Z,6.68
2023-02-05T22:58:49.149Z,6.60
2023-02-05T23:01:19.331Z,6.47
2023-02-05T23:03:49.367Z,6.03
2023-02-05T23:06:19.143Z,7.13
2023-02-05T23:08:51.337Z,6.80
2023-02-05T23:11:20.502Z,9.40
2023-02-05T23:13:50.156Z,6.13
2023-02-05T23:16:20.883Z,9.20
2023-02-05T23:18:50.218Z,7.47
2023-02-05T23:21:21.950Z,8.88
2023-02-05T23:23:50.742Z,6.00
2023-02-05T23:26:21.452Z,7.13
2023-02-05T23:28:51.226Z,10.00
2023-02-05T23:31:19.993Z,6.70
2023-02-05T23:33:48.001Z,8.68
2023-02-05T23:36:15.921Z,6.63
2023-02-05T23:38:44.058Z,4.72
2023-02-05T23:41:12.217Z,7.75
2023-02-05T23:43:41.083Z,6.10
2023-02-05T23:46:10.496Z,8.80
2023-02-05T23:48:38.346Z,5.30
2023-02-05T23:51:06.269Z,4.82
2023-02-05T23:53:34.312Z,8.10
2023-02-05T23:56:03.395Z,8.82
2023-02-05T23:58:34.064Z,7.95
